sensor_id;sensor_type;location;lat;lon;timestamp;temperature;humidity
5246;DHT22;54412;51.206;6.888;2023-02-01T00:02:06;7.30;99.90
5246;DHT22;54412;51.206;6.888;2023-02-01T00:04:31;7.20;99.90
5246;DHT22;54412;51.206;6.888;2023-02-01T00:06:57;7.10;99.90
5246;DHT22;54412;51.206;6.888;2023-02-01T00:09:23;7.20;99.90
5246;DHT22;54412;51.206;6.888;2023-02-01T00:11:49;7.20;99.90
5246;DHT22;54412;51.206;6.888;2023-02-01T00:14:15;7.20;99.90
5246;DHT22;54412;51.206;6.888;2023-02-01T00:16:40;7.20;99.90
5246;DHT22;54412;51.206;6.888;2023-02-01T00:19:11;7.00;99.90
5246;DHT22;54412;51.206;6.888;2023-02-01T00:21:38;7.10;99.90
5246;DHT22;54412;51.206;6.888;2023-02-01T00:24:04;7.20;99.90
5246;DHT22;54412;51.206;6.888;2023-02-01T00:26:41;7.20;99.90
5246;DHT22;54412;51.206;6.888;2023-02-01T00:29:14;7.20;99.90
5246;DHT22;54412;51.206;6.888;2023-02-01T00:31:42;7.20;99.90
5246;DHT22;54412;51.206;6.888;2023-02-01T00:34:11;7.10;99.90
5246;DHT22;54412;51.206;6.888;2023-02-01T00:36:39;7.10;99.90
5246;DHT22;54412;51.206;6.888;2023-02-01T00:39:06;7.20;99.90
5246;DHT22;54412;51.206;6.888;2023-02-01T00:41:32;7.10;99.90
5246;DHT22;54412;51.206;6.888;2023-02-01T00:43:58;7.20;99.90
5246;DHT22;54412;51.206;6.888;2023-02-01T00:46:24;7.20;99.90
5246;DHT22;54412;51.206;6.888;2023-02-01T00:48:50;7.20;99.90
5246;DHT22;54412;51.206;6.888;2023-02-01T00:51:19;7.30;99.90
5246;DHT22;54412;51.206;6.888;2023-02-01T00:53:47;7.30;99.90
5246;DHT22;54412;51.206;6.888;2023-02-01T00:56:13;7.30;99.90
5246;DHT22;54412;51.206;6.888;2023-02-01T00:58:40;7.30;99.90
5246;DHT22;54412;51.206;6.888;2023-02-01T01:01:12;7.10;99.90
5246;DHT22;54412;51.206;6.888;2023-02-01T01:03:45;7.10;99.90
5246;DHT22;54412;51.206;6.888;2023-02-01T01:06:18;7.10;99.90
5246;DHT22;54412;51.206;6.888;2023-02-01T01:08:46;7.20;99.90
5246;DHT22;54412;51.206;6.888;2023-02-01T01:11:17;7.20;99.90
5246;DHT22;54412;51.206;6.888;2023-02-01T01:13:49;7.20;99.90
5246;DHT22;54412;51.206;6.888;2023-02-01T01:16:16;7.10;99.90
5246;DHT22;54412;51.206;6.888;2023-02-01T01:18:42;7.30;99.90
5246;DHT22;54412;51.206;6.888;2023-02-01T01:21:11;7.30;99.90
5246;DHT22;54412;51.206;6.888;2023-02-01T01:23:38;7.30;99.90
5246;DHT22;54412;51.206;6.888;2023-02-01T01:26:08;7.30;99.90
5246;DHT22;54412;51.206;6.888;2023-02-01T01:28:36;7.30;99.90
5246;DHT22;54412;51.206;6.888;2023-02-01T01:31:02;7.30;99.90
5246;DHT22;54412;51.206;6.888;2023-02-01T01:33:28;7.30;99.90
5246;DHT22;54412;51.206;6.888;2023-02-01T01:35:54;7.30;99.90
5246;DHT22;54412;51.206;6.888;2023-02-01T01:38:20;7.30;99.90
5246;DHT22;54412;51.206;6.888;2023-02-01T01:40:47;7.30;99.90
5246;DHT22;54412;51.206;6.888;2023-02-01T01:43:17;7.30;99.90
5246;DHT22;54412;51.206;6.888;2023-02-01T01:45:48;7.30;99.90
5246;DHT22;54412;51.206;6.888;2023-02-01T01:48:27;7.30;99.90
5246;DHT22;54412;51.206;6.888;2023-02-01T01:51:08;7.20;99.90
5246;DHT22;54412;51.206;6.888;2023-02-01T01:53:45;7.10;99.90
5246;DHT22;54412;51.206;6.888;2023-02-01T01:56:15;7.10;99.90
5246;DHT22;54412;51.206;6.888;2023-02-01T01:58:41;7.00;99.90
5246;DHT22;54412;51.206;6.888;2023-02-01T02:01:07;6.90;99.90
5246;DHT22;54412;51.206;6.888;2023-02-01T02:03:39;7.10;99.90
5246;DHT22;54412;51.206;6.888;2023-02-01T02:06:20;7.10;99.90
5246;DHT22;54412;51.206;6.888;2023-02-01T02:08:55;6.90;99.90
5246;DHT22;54412;51.206;6.888;2023-02-01T02:11:20;7.00;99.90
5246;DHT22;54412;51.206;6.888;2023-02-01T02:13:49;7.00;99.90
5246;DHT22;54412;51.206;6.888;2023-02-01T02:19:32;7.00;99.90
5246;DHT22;54412;51.206;6.888;2023-02-01T02:35:09;6.80;99.90
5246;DHT22;54412;51.206;6.888;2023-02-01T02:37:57;6.80;99.90
5246;DHT22;54412;51.206;6.888;2023-02-01T02:44:13;6.80;99.90
5246;DHT22;54412;51.206;6.888;2023-02-01T02:47:47;6.80;99.90
5246;DHT22;54412;51.206;6.888;2023-02-01T02:53:27;6.70;99.90
5246;DHT22;54412;51.206;6.888;2023-02-01T02:56:18;6.80;99.90
5246;DHT22;54412;51.206;6.888;2023-02-01T02:59:06;6.60;99.90
5246;DHT22;54412;51.206;6.888;2023-02-01T03:01:53;6.60;99.90
5246;DHT22;54412;51.206;6.888;2023-02-01T03:04:39;6.60;99.90
5246;DHT22;54412;51.206;6.888;2023-02-01T03:07:14;6.70;99.90
5246;DHT22;54412;51.206;6.888;2023-02-01T03:10:05;6.70;99.90
5246;DHT22;54412;51.206;6.888;2023-02-01T03:12:38;6.80;99.90
5246;DHT22;54412;51.206;6.888;2023-02-01T03:15:28;6.80;99.90
5246;DHT22;54412;51.206;6.888;2023-02-01T03:18:01;6.80;99.90
5246;DHT22;54412;51.206;6.888;2023-02-01T03:20:33;6.80;99.90
5246;DHT22;54412;51.206;6.888;2023-02-01T03:23:00;6.80;99.90
5246;DHT22;54412;51.206;6.888;2023-02-01T03:25:32;6.80;99.90
5246;DHT22;54412;51.206;6.888;2023-02-01T03:28:07;6.80;99.90
5246;DHT22;54412;51.206;6.888;2023-02-01T03:30:41;6.70;99.90
5246;DHT22;54412;51.206;6.888;2023-02-01T03:33:15;6.70;99.90
5246;DHT22;54412;51.206;6.888;2023-02-01T03:38:55;6.70;99.90
5246;DHT22;54412;51.206;6.888;2023-02-01T03:41:50;6.70;99.90
5246;DHT22;54412;51.206;6.888;2023-02-01T03:47:17;6.90;99.90
5246;DHT22;54412;51.206;6.888;2023-02-01T03:49:50;6.80;99.90
5246;DHT22;54412;51.206;6.888;2023-02-01T03:52:25;6.90;99.90
5246;DHT22;54412;51.206;6.888;2023-02-01T03:54:56;6.80;99.90
5246;DHT22;54412;51.206;6.888;2023-02-01T03:57:27;6.80;99.90
5246;DHT22;54412;51.206;6.888;2023-02-01T04:00:27;6.80;99.90
5246;DHT22;54412;51.206;6.888;2023-02-01T04:02:53;6.90;99.90
5246;DHT22;54412;51.206;6.888;2023-02-01T04:05:20;6.90;99.90
5246;DHT22;54412;51.206;6.888;2023-02-01T04:07:47;7.10;99.90
5246;DHT22;54412;51.206;6.888;2023-02-01T04:10:13;7.00;99.90
5246;DHT22;54412;51.206;6.888;2023-02-01T04:12:39;7.00;99.90
5246;DHT22;54412;51.206;6.888;2023-02-01T04:15:06;7.10;99.90
5246;DHT22;54412;51.206;6.888;2023-02-01T04:17:32;7.10;99.90
5246;DHT22;54412;51.206;6.888;2023-02-01T04:19:58;7.10;99.90
5246;DHT22;54412;51.206;6.888;2023-02-01T04:22:24;6.90;99.90
5246;DHT22;54412;51.206;6.888;2023-02-01T04:24:50;6.90;99.90
5246;DHT22;54412;51.206;6.888;2023-02-01T04:27:15;6.90;99.90
5246;DHT22;54412;51.206;6.888;2023-02-01T04:29:41;6.80;99.90
5246;DHT22;54412;51.206;6.888;2023-02-01T04:32:07;6.90;99.90
5246;DHT22;54412;51.206;6.888;2023-02-01T04:34:33;6.90;99.90
5246;DHT22;54412;51.206;6.888;2023-02-01T04:36:59;6.90;99.90
5246;DHT22;54412;51.206;6.888;2023-02-01T04:39:24;6.80;99.90
5246;DHT22;54412;51.206;6.888;2023-02-01T04:41:50;6.80;99.90
5246;DHT22;54412;51.206;6.888;2023-02-01T04:44:17;6.70;99.90
5246;DHT22;54412;51.206;6.888;2023-02-01T04:46:45;6.70;99.90
5246;DHT22;54412;51.206;6.888;2023-02-01T04:49:13;6.80;99.90
5246;DHT22;54412;51.206;6.888;2023-02-01T04:51:39;6.80;99.90
5246;DHT22;54412;51.206;6.888;2023-02-01T04:54:06;6.80;99.90
5246;DHT22;54412;51.206;6.888;2023-02-01T04:56:33;6.80;99.90
5246;DHT22;54412;51.206;6.888;2023-02-01T04:59:00;6.80;99.90
5246;DHT22;54412;51.206;6.888;2023-02-01T05:01:28;6.70;99.90
5246;DHT22;54412;51.206;6.888;2023-02-01T05:03:54;6.80;99.90
5246;DHT22;54412;51.206;6.888;2023-02-01T05:06:20;6.70;99.90
5246;DHT22;54412;51.206;6.888;2023-02-01T05:08:46;6.70;99.90
5246;DHT22;54412;51.206;6.888;2023-02-01T05:11:12;6.70;99.90
5246;DHT22;54412;51.206;6.888;2023-02-01T05:13:58;6.70;99.90
5246;DHT22;54412;51.206;6.888;2023-02-01T05:16:25;6.70;99.90
5246;DHT22;54412;51.206;6.888;2023-02-01T05:18:51;6.70;99.90
5246;DHT22;54412;51.206;6.888;2023-02-01T05:21:17;6.60;99.90
5246;DHT22;54412;51.206;6.888;2023-02-01T05:23:42;6.60;99.90
5246;DHT22;54412;51.206;6.888;2023-02-01T05:26:26;6.70;99.90
5246;DHT22;54412;51.206;6.888;2023-02-01T05:28:52;6.60;99.90
5246;DHT22;54412;51.206;6.888;2023-02-01T05:31:18;6.70;99.90
5246;DHT22;54412;51.206;6.888;2023-02-01T05:33:44;6.70;99.90
5246;DHT22;54412;51.206;6.888;2023-02-01T05:36:09;6.70;99.90
5246;DHT22;54412;51.206;6.888;2023-02-01T05:38:35;6.70;99.90
5246;DHT22;54412;51.206;6.888;2023-02-01T05:41:00;6.80;99.90
5246;DHT22;54412;51.206;6.888;2023-02-01T05:43:26;6.80;99.90
5246;DHT22;54412;51.206;6.888;2023-02-01T05:45:52;6.60;99.90
5246;DHT22;54412;51.206;6.888;2023-02-01T05:48:18;6.70;99.90
5246;DHT22;54412;51.206;6.888;2023-02-01T05:50:44;6.70;99.90
5246;DHT22;54412;51.206;6.888;2023-02-01T05:53:11;6.70;99.90
5246;DHT22;54412;51.206;6.888;2023-02-01T05:55:37;6.60;99.90
5246;DHT22;54412;51.206;6.888;2023-02-01T05:58:04;6.80;99.90
5246;DHT22;54412;51.206;6.888;2023-02-01T06:00:31;6.90;99.90
5246;DHT22;54412;51.206;6.888;2023-02-01T06:02:57;7.00;99.90
5246;DHT22;54412;51.206;6.888;2023-02-01T06:05:23;6.90;99.90
5246;DHT22;54412;51.206;6.888;2023-02-01T06:07:49;7.00;99.90
5246;DHT22;54412;51.206;6.888;2023-02-01T06:10:16;7.00;99.90
5246;DHT22;54412;51.206;6.888;2023-02-01T06:12:43;6.90;99.90
5246;DHT22;54412;51.206;6.888;2023-02-01T06:15:11;7.10;99.90
5246;DHT22;54412;51.206;6.888;2023-02-01T06:17:37;6.80;99.90
5246;DHT22;54412;51.206;6.888;2023-02-01T06:20:05;6.80;99.90
5246;DHT22;54412;51.206;6.888;2023-02-01T06:22:32;6.90;99.90
5246;DHT22;54412;51.206;6.888;2023-02-01T06:24:58;6.80;99.90
5246;DHT22;54412;51.206;6.888;2023-02-01T06:27:24;6.70;99.90
5246;DHT22;54412;51.206;6.888;2023-02-01T06:29:50;6.60;99.90
5246;DHT22;54412;51.206;6.888;2023-02-01T06:32:16;6.60;99.90
5246;DHT22;54412;51.206;6.888;2023-02-01T06:34:42;6.60;99.90
5246;DHT22;54412;51.206;6.888;2023-02-01T06:37:08;6.70;99.90
5246;DHT22;54412;51.206;6.888;2023-02-01T06:39:36;6.70;99.90
5246;DHT22;54412;51.206;6.888;2023-02-01T06:42:02;6.70;99.90
5246;DHT22;54412;51.206;6.888;2023-02-01T06:44:28;6.60;99.90
5246;DHT22;54412;51.206;6.888;2023-02-01T06:46:54;6.70;99.90
5246;DHT22;54412;51.206;6.888;2023-02-01T06:49:20;6.60;99.90
5246;DHT22;54412;51.206;6.888;2023-02-01T06:51:46;6.60;99.90
5246;DHT22;54412;51.206;6.888;2023-02-01T06:54:12;6.80;99.90
5246;DHT22;54412;51.206;6.888;2023-02-01T06:56:38;6.70;99.90
5246;DHT22;54412;51.206;6.888;2023-02-01T06:59:05;6.70;99.90
5246;DHT22;54412;51.206;6.888;2023-02-01T07:01:32;6.70;99.90
5246;DHT22;54412;51.206;6.888;2023-02-01T07:03:57;6.70;99.90
5246;DHT22;54412;51.206;6.888;2023-02-01T07:06:23;6.80;99.90
5246;DHT22;54412;51.206;6.888;2023-02-01T07:08:49;6.80;99.90
5246;DHT22;54412;51.206;6.888;2023-02-01T07:11:16;6.80;99.90
5246;DHT22;54412;51.206;6.888;2023-02-01T07:13:43;6.80;99.90
5246;DHT22;54412;51.206;6.888;2023-02-01T07:16:15;6.90;99.90
5246;DHT22;54412;51.206;6.888;2023-02-01T07:18:43;6.90;99.90
5246;DHT22;54412;51.206;6.888;2023-02-01T07:21:09;6.90;99.90
5246;DHT22;54412;51.206;6.888;2023-02-01T07:23:35;6.90;99.90
5246;DHT22;54412;51.206;6.888;2023-02-01T07:26:05;6.90;99.90
5246;DHT22;54412;51.206;6.888;2023-02-01T07:28:34;6.80;99.90
5246;DHT22;54412;51.206;6.888;2023-02-01T07:31:27;6.80;99.90
5246;DHT22;54412;51.206;6.888;2023-02-01T07:33:54;6.80;99.90
5246;DHT22;54412;51.206;6.888;2023-02-01T07:36:21;6.80;99.90
5246;DHT22;54412;51.206;6.888;2023-02-01T07:38:47;6.80;99.90
5246;DHT22;54412;51.206;6.888;2023-02-01T07:41:13;6.90;99.90
5246;DHT22;54412;51.206;6.888;2023-02-01T07:43:39;6.80;99.90
5246;DHT22;54412;51.206;6.888;2023-02-01T07:46:05;6.90;99.90
5246;DHT22;54412;51.206;6.888;2023-02-01T07:48:32;6.80;99.90
5246;DHT22;54412;51.206;6.888;2023-02-01T07:51:08;6.90;99.90
5246;DHT22;54412;51.206;6.888;2023-02-01T07:53:39;6.90;99.90
5246;DHT22;54412;51.206;6.888;2023-02-01T07:56:11;6.90;99.90
5246;DHT22;54412;51.206;6.888;2023-02-01T07:58:39;6.90;99.90
5246;DHT22;54412;51.206;6.888;2023-02-01T08:01:05;6.90;99.90
5246;DHT22;54412;51.206;6.888;2023-02-01T08:03:51;6.90;99.90
5246;DHT22;54412;51.206;6.888;2023-02-01T08:06:19;6.90;99.90
5246;DHT22;54412;51.206;6.888;2023-02-01T08:08:47;6.90;99.90
5246;DHT22;54412;51.206;6.888;2023-02-01T08:11:14;6.90;99.90
5246;DHT22;54412;51.206;6.888;2023-02-01T08:13:40;6.90;99.90
5246;DHT22;54412;51.206;6.888;2023-02-01T08:16:08;7.00;99.90
5246;DHT22;54412;51.206;6.888;2023-02-01T08:18:36;7.00;99.90
5246;DHT22;54412;51.206;6.888;2023-02-01T08:21:04;6.90;99.90
5246;DHT22;54412;51.206;6.888;2023-02-01T08:23:33;6.90;99.90
5246;DHT22;54412;51.206;6.888;2023-02-01T08:26:17;6.90;99.90
5246;DHT22;54412;51.206;6.888;2023-02-01T08:28:56;6.90;99.90
5246;DHT22;54412;51.206;6.888;2023-02-01T08:31:26;7.10;99.90
5246;DHT22;54412;51.206;6.888;2023-02-01T08:33:56;7.10;99.90
5246;DHT22;54412;51.206;6.888;2023-02-01T08:36:25;7.00;99.90
5246;DHT22;54412;51.206;6.888;2023-02-01T08:38:53;7.00;99.90
5246;DHT22;54412;51.206;6.888;2023-02-01T08:41:21;7.00;99.90
5246;DHT22;54412;51.206;6.888;2023-02-01T08:43:49;7.10;99.90
5246;DHT22;54412;51.206;6.888;2023-02-01T08:46:16;7.10;99.90
5246;DHT22;54412;51.206;6.888;2023-02-01T08:48:42;7.10;99.90
5246;DHT22;54412;51.206;6.888;2023-02-01T08:51:11;7.10;99.90
5246;DHT22;54412;51.206;6.888;2023-02-01T08:53:39;7.20;99.90
5246;DHT22;54412;51.206;6.888;2023-02-01T08:56:12;7.10;99.90
5246;DHT22;54412;51.206;6.888;2023-02-01T08:58:40;7.10;99.90
5246;DHT22;54412;51.206;6.888;2023-02-01T09:01:09;7.20;99.90
5246;DHT22;54412;51.206;6.888;2023-02-01T09:03:37;7.10;99.90
5246;DHT22;54412;51.206;6.888;2023-02-01T09:06:09;7.10;99.90
5246;DHT22;54412;51.206;6.888;2023-02-01T09:08:38;7.10;99.90
5246;DHT22;54412;51.206;6.888;2023-02-01T09:11:10;7.20;99.90
5246;DHT22;54412;51.206;6.888;2023-02-01T09:13:38;7.10;99.90
5246;DHT22;54412;51.206;6.888;2023-02-01T09:16:04;7.10;99.90
5246;DHT22;54412;51.206;6.888;2023-02-01T09:18:30;7.20;99.90
5246;DHT22;54412;51.206;6.888;2023-02-01T09:20:56;7.20;99.90
5246;DHT22;54412;51.206;6.888;2023-02-01T09:23:22;7.30;99.90
5246;DHT22;54412;51.206;6.888;2023-02-01T09:25:47;7.20;99.90
5246;DHT22;54412;51.206;6.888;2023-02-01T09:28:18;7.20;99.90
5246;DHT22;54412;51.206;6.888;2023-02-01T09:30:44;7.20;99.90
5246;DHT22;54412;51.206;6.888;2023-02-01T09:33:09;7.20;99.90
5246;DHT22;54412;51.206;6.888;2023-02-01T09:35:35;7.20;99.90
5246;DHT22;54412;51.206;6.888;2023-02-01T09:38:01;7.20;99.90
5246;DHT22;54412;51.206;6.888;2023-02-01T09:40:26;7.30;99.90
5246;DHT22;54412;51.206;6.888;2023-02-01T09:46:07;7.30;99.90
5246;DHT22;54412;51.206;6.888;2023-02-01T09:48:46;7.30;99.90
5246;DHT22;54412;51.206;6.888;2023-02-01T09:51:22;7.30;99.90
5246;DHT22;54412;51.206;6.888;2023-02-01T09:54:04;7.20;99.90
5246;DHT22;54412;51.206;6.888;2023-02-01T09:56:57;7.40;99.90
5246;DHT22;54412;51.206;6.888;2023-02-01T09:59:43;7.30;99.90
5246;DHT22;54412;51.206;6.888;2023-02-01T10:02:19;7.20;99.90
5246;DHT22;54412;51.206;6.888;2023-02-01T10:04:49;7.20;99.90
5246;DHT22;54412;51.206;6.888;2023-02-01T10:10:56;7.00;99.90
5246;DHT22;54412;51.206;6.888;2023-02-01T10:14:03;6.90;99.90
5246;DHT22;54412;51.206;6.888;2023-02-01T10:26:20;7.10;99.90
5246;DHT22;54412;51.206;6.888;2023-02-01T10:28:53;6.90;99.90
5246;DHT22;54412;51.206;6.888;2023-02-01T10:31:26;6.80;99.90
5246;DHT22;54412;51.206;6.888;2023-02-01T10:33:58;6.90;99.90
5246;DHT22;54412;51.206;6.888;2023-02-01T10:36:32;7.00;99.90
5246;DHT22;54412;51.206;6.888;2023-02-01T10:39:00;7.10;99.90
5246;DHT22;54412;51.206;6.888;2023-02-01T10:41:35;6.90;99.90
5246;DHT22;54412;51.206;6.888;2023-02-01T10:44:11;7.00;99.90
5246;DHT22;54412;51.206;6.888;2023-02-01T10:46:40;7.00;99.90
5246;DHT22;54412;51.206;6.888;2023-02-01T10:49:33;7.00;99.90
5246;DHT22;54412;51.206;6.888;2023-02-01T10:52:10;7.10;99.90
5246;DHT22;54412;51.206;6.888;2023-02-01T10:54:41;7.10;99.90
5246;DHT22;54412;51.206;6.888;2023-02-01T10:57:24;7.10;99.90
5246;DHT22;54412;51.206;6.888;2023-02-01T10:59:53;7.20;99.90
5246;DHT22;54412;51.206;6.888;2023-02-01T11:02:33;7.20;99.90
5246;DHT22;54412;51.206;6.888;2023-02-01T11:05:08;7.20;99.90
5246;DHT22;54412;51.206;6.888;2023-02-01T11:07:38;7.20;99.90
5246;DHT22;54412;51.206;6.888;2023-02-01T11:10:38;7.20;99.90
5246;DHT22;54412;51.206;6.888;2023-02-01T11:13:14;7.20;99.90
5246;DHT22;54412;51.206;6.888;2023-02-01T11:15:45;7.20;99.90
5246;DHT22;54412;51.206;6.888;2023-02-01T11:18:20;7.20;99.90
5246;DHT22;54412;51.206;6.888;2023-02-01T11:20:52;7.30;99.90
5246;DHT22;54412;51.206;6.888;2023-02-01T11:23:23;7.30;99.90
5246;DHT22;54412;51.206;6.888;2023-02-01T11:26:07;7.40;99.90
5246;DHT22;54412;51.206;6.888;2023-02-01T11:28:39;7.40;99.90
5246;DHT22;54412;51.206;6.888;2023-02-01T11:31:11;7.50;99.90
5246;DHT22;54412;51.206;6.888;2023-02-01T11:33:41;7.50;99.90
5246;DHT22;54412;51.206;6.888;2023-02-01T11:36:24;7.60;99.90
5246;DHT22;54412;51.206;6.888;2023-02-01T11:39:17;7.60;99.90
5246;DHT22;54412;51.206;6.888;2023-02-01T11:42:20;7.60;99.90
5246;DHT22;54412;51.206;6.888;2023-02-01T11:44:47;7.50;99.90
5246;DHT22;54412;51.206;6.888;2023-02-01T11:47:30;7.50;99.90
5246;DHT22;54412;51.206;6.888;2023-02-01T11:50:16;7.50;99.90
5246;DHT22;54412;51.206;6.888;2023-02-01T11:53:03;7.60;99.90
5246;DHT22;54412;51.206;6.888;2023-02-01T12:01:38;7.70;99.90
5246;DHT22;54412;51.206;6.888;2023-02-01T12:07:32;7.70;99.90
5246;DHT22;54412;51.206;6.888;2023-02-01T12:13:03;7.80;99.90
5246;DHT22;54412;51.206;6.888;2023-02-01T12:15:45;7.80;99.90
5246;DHT22;54412;51.206;6.888;2023-02-01T12:27:42;7.90;99.90
5246;DHT22;54412;51.206;6.888;2023-02-01T12:36:07;7.80;99.90
5246;DHT22;54412;51.206;6.888;2023-02-01T12:41:47;7.80;99.90
5246;DHT22;54412;51.206;6.888;2023-02-01T12:47:29;7.90;99.90
5246;DHT22;54412;51.206;6.888;2023-02-01T12:50:22;7.90;99.90
5246;DHT22;54412;51.206;6.888;2023-02-01T12:52:58;7.90;99.90
5246;DHT22;54412;51.206;6.888;2023-02-01T12:55:42;7.90;99.90
5246;DHT22;54412;51.206;6.888;2023-02-01T12:58:26;8.00;99.90
5246;DHT22;54412;51.206;6.888;2023-02-01T13:01:06;7.90;99.90
5246;DHT22;54412;51.206;6.888;2023-02-01T13:03:59;7.90;99.90
5246;DHT22;54412;51.206;6.888;2023-02-01T13:06:48;7.90;99.90
5246;DHT22;54412;51.206;6.888;2023-02-01T13:09:43;8.00;99.90
5246;DHT22;54412;51.206;6.888;2023-02-01T13:12:38;8.00;99.90
5246;DHT22;54412;51.206;6.888;2023-02-01T13:15:15;8.10;99.90
5246;DHT22;54412;51.206;6.888;2023-02-01T13:17:52;8.00;99.90
5246;DHT22;54412;51.206;6.888;2023-02-01T13:20:30;8.00;99.90
5246;DHT22;54412;51.206;6.888;2023-02-01T13:23:33;8.00;99.90
5246;DHT22;54412;51.206;6.888;2023-02-01T13:26:01;8.10;99.90
5246;DHT22;54412;51.206;6.888;2023-02-01T13:43:01;8.10;99.90
5246;DHT22;54412;51.206;6.888;2023-02-01T13:45:49;8.20;99.90
5246;DHT22;54412;51.206;6.888;2023-02-01T13:51:12;8.20;99.90
5246;DHT22;54412;51.206;6.888;2023-02-01T13:53:46;8.20;99.90
5246;DHT22;54412;51.206;6.888;2023-02-01T13:56:20;8.10;99.90
5246;DHT22;54412;51.206;6.888;2023-02-01T13:58:50;8.20;99.90
5246;DHT22;54412;51.206;6.888;2023-02-01T14:11:48;8.30;99.90
5246;DHT22;54412;51.206;6.888;2023-02-01T14:21:54;8.20;99.90
5246;DHT22;54412;51.206;6.888;2023-02-01T14:24:32;8.20;99.90
5246;DHT22;54412;51.206;6.888;2023-02-01T14:29:41;8.30;99.90
5246;DHT22;54412;51.206;6.888;2023-02-01T14:32:22;8.30;99.90
5246;DHT22;54412;51.206;6.888;2023-02-01T14:34:53;8.30;99.90
5246;DHT22;54412;51.206;6.888;2023-02-01T14:42:38;8.40;99.90
5246;DHT22;54412;51.206;6.888;2023-02-01T14:53:11;8.30;99.90
5246;DHT22;54412;51.206;6.888;2023-02-01T15:04:08;8.40;99.90
5246;DHT22;54412;51.206;6.888;2023-02-01T15:09:27;8.50;99.90
5246;DHT22;54412;51.206;6.888;2023-02-01T15:14:38;8.60;99.90
5246;DHT22;54412;51.206;6.888;2023-02-01T15:17:26;8.50;99.90
5246;DHT22;54412;51.206;6.888;2023-02-01T15:20:04;8.50;99.90
5246;DHT22;54412;51.206;6.888;2023-02-01T15:22:40;8.50;99.90
5246;DHT22;54412;51.206;6.888;2023-02-01T15:25:19;8.50;99.90
5246;DHT22;54412;51.206;6.888;2023-02-01T15:27:48;8.50;99.90
5246;DHT22;54412;51.206;6.888;2023-02-01T15:30:25;8.50;99.90
5246;DHT22;54412;51.206;6.888;2023-02-01T15:33:25;8.50;99.90
5246;DHT22;54412;51.206;6.888;2023-02-01T15:35:54;8.50;99.90
5246;DHT22;54412;51.206;6.888;2023-02-01T15:41:13;8.50;99.90
5246;DHT22;54412;51.206;6.888;2023-02-01T15:46:33;8.50;99.90
5246;DHT22;54412;51.206;6.888;2023-02-01T15:49:02;8.50;99.90
5246;DHT22;54412;51.206;6.888;2023-02-01T15:51:30;8.50;99.90
5246;DHT22;54412;51.206;6.888;2023-02-01T15:54:03;8.50;99.90
5246;DHT22;54412;51.206;6.888;2023-02-01T15:56:37;8.40;99.90
5246;DHT22;54412;51.206;6.888;2023-02-01T15:59:16;8.40;99.90
5246;DHT22;54412;51.206;6.888;2023-02-01T16:01:44;8.50;99.90
5246;DHT22;54412;51.206;6.888;2023-02-01T16:04:20;8.60;99.90
5246;DHT22;54412;51.206;6.888;2023-02-01T16:06:51;8.50;99.90
5246;DHT22;54412;51.206;6.888;2023-02-01T16:09:23;8.50;99.90
5246;DHT22;54412;51.206;6.888;2023-02-01T16:12:01;8.50;99.90
5246;DHT22;54412;51.206;6.888;2023-02-01T16:14:29;8.40;99.90
5246;DHT22;54412;51.206;6.888;2023-02-01T16:16:57;8.50;99.90
5246;DHT22;54412;51.206;6.888;2023-02-01T16:19:23;8.50;99.90
5246;DHT22;54412;51.206;6.888;2023-02-01T16:21:53;8.50;99.90
5246;DHT22;54412;51.206;6.888;2023-02-01T16:24:23;8.40;99.90
5246;DHT22;54412;51.206;6.888;2023-02-01T16:26:51;8.40;99.90
5246;DHT22;54412;51.206;6.888;2023-02-01T16:29:16;8.40;99.90
5246;DHT22;54412;51.206;6.888;2023-02-01T16:31:42;8.50;99.90
5246;DHT22;54412;51.206;6.888;2023-02-01T16:34:14;8.40;99.90
5246;DHT22;54412;51.206;6.888;2023-02-01T16:36:47;8.40;99.90
5246;DHT22;54412;51.206;6.888;2023-02-01T16:39:18;8.40;99.90
5246;DHT22;54412;51.206;6.888;2023-02-01T16:41:45;8.40;99.90
5246;DHT22;54412;51.206;6.888;2023-02-01T16:44:11;8.40;99.90
5246;DHT22;54412;51.206;6.888;2023-02-01T16:46:41;8.50;99.90
5246;DHT22;54412;51.206;6.888;2023-02-01T16:49:21;8.50;99.90
5246;DHT22;54412;51.206;6.888;2023-02-01T16:51:52;8.40;99.90
5246;DHT22;54412;51.206;6.888;2023-02-01T16:54:23;8.40;99.90
5246;DHT22;54412;51.206;6.888;2023-02-01T16:56:48;8.50;99.90
5246;DHT22;54412;51.206;6.888;2023-02-01T16:59:14;8.50;99.90
5246;DHT22;54412;51.206;6.888;2023-02-01T17:01:40;8.40;99.90
5246;DHT22;54412;51.206;6.888;2023-02-01T17:04:08;8.40;99.90
5246;DHT22;54412;51.206;6.888;2023-02-01T17:06:36;8.50;99.90
5246;DHT22;54412;51.206;6.888;2023-02-01T17:09:03;8.40;99.90
5246;DHT22;54412;51.206;6.888;2023-02-01T17:11:30;8.40;99.90
5246;DHT22;54412;51.206;6.888;2023-02-01T17:14:16;8.40;99.90
5246;DHT22;54412;51.206;6.888;2023-02-01T17:16:45;8.40;99.90
5246;DHT22;54412;51.206;6.888;2023-02-01T17:19:18;8.40;99.90
5246;DHT22;54412;51.206;6.888;2023-02-01T17:21:50;8.40;99.90
5246;DHT22;54412;51.206;6.888;2023-02-01T17:24:23;8.50;99.90
5246;DHT22;54412;51.206;6.888;2023-02-01T17:26:51;8.40;99.90
5246;DHT22;54412;51.206;6.888;2023-02-01T17:29:18;8.40;99.90
5246;DHT22;54412;51.206;6.888;2023-02-01T17:31:47;8.50;99.90
5246;DHT22;54412;51.206;6.888;2023-02-01T17:34:15;8.50;99.90
5246;DHT22;54412;51.206;6.888;2023-02-01T17:36:42;8.40;99.90
5246;DHT22;54412;51.206;6.888;2023-02-01T17:39:10;8.40;99.90
5246;DHT22;54412;51.206;6.888;2023-02-01T17:41:56;8.50;99.90
5246;DHT22;54412;51.206;6.888;2023-02-01T17:44:21;8.50;99.90
5246;DHT22;54412;51.206;6.888;2023-02-01T17:46:47;8.40;99.90
5246;DHT22;54412;51.206;6.888;2023-02-01T17:49:13;8.50;99.90
5246;DHT22;54412;51.206;6.888;2023-02-01T17:51:38;8.50;99.90
5246;DHT22;54412;51.206;6.888;2023-02-01T17:54:11;8.50;99.90
5246;DHT22;54412;51.206;6.888;2023-02-01T17:56:37;8.50;99.90
5246;DHT22;54412;51.206;6.888;2023-02-01T17:59:03;8.50;99.90
5246;DHT22;54412;51.206;6.888;2023-02-01T18:01:29;8.50;99.90
5246;DHT22;54412;51.206;6.888;2023-02-01T18:03:55;8.50;99.90
5246;DHT22;54412;51.206;6.888;2023-02-01T18:06:22;8.50;99.90
5246;DHT22;54412;51.206;6.888;2023-02-01T18:08:51;8.50;99.90
5246;DHT22;54412;51.206;6.888;2023-02-01T18:11:20;8.50;99.90
5246;DHT22;54412;51.206;6.888;2023-02-01T18:13:50;8.50;99.90
5246;DHT22;54412;51.206;6.888;2023-02-01T18:16:25;8.50;99.90
5246;DHT22;54412;51.206;6.888;2023-02-01T18:18:53;8.60;99.90
5246;DHT22;54412;51.206;6.888;2023-02-01T18:21:21;8.60;99.90
5246;DHT22;54412;51.206;6.888;2023-02-01T18:23:48;8.60;99.90
5246;DHT22;54412;51.206;6.888;2023-02-01T18:26:16;8.60;99.90
5246;DHT22;54412;51.206;6.888;2023-02-01T18:28:42;8.50;99.90
5246;DHT22;54412;51.206;6.888;2023-02-01T18:31:25;8.50;99.90
5246;DHT22;54412;51.206;6.888;2023-02-01T18:33:53;8.50;99.90
5246;DHT22;54412;51.206;6.888;2023-02-01T18:36:20;8.50;99.90
5246;DHT22;54412;51.206;6.888;2023-02-01T18:38:46;8.50;99.90
5246;DHT22;54412;51.206;6.888;2023-02-01T18:41:14;8.50;99.90
5246;DHT22;54412;51.206;6.888;2023-02-01T18:43:42;8.50;99.90
5246;DHT22;54412;51.206;6.888;2023-02-01T18:46:09;8.40;99.90
5246;DHT22;54412;51.206;6.888;2023-02-01T18:48:35;8.50;99.90
5246;DHT22;54412;51.206;6.888;2023-02-01T18:51:01;8.40;99.90
5246;DHT22;54412;51.206;6.888;2023-02-01T18:53:28;8.40;99.90
5246;DHT22;54412;51.206;6.888;2023-02-01T18:55:55;8.40;99.90
5246;DHT22;54412;51.206;6.888;2023-02-01T18:58:22;8.40;99.90
5246;DHT22;54412;51.206;6.888;2023-02-01T19:00:51;8.40;99.90